createdAt,value
2022-10-17T00:00:18.620Z,92.84
2022-10-17T00:01:18.669Z,92.64
2022-10-17T00:02:18.571Z,92.64
2022-10-17T00:03:18.544Z,92.54
2022-10-17T00:04:18.539Z,92.43
2022-10-17T00:05:18.582Z,92.23
2022-10-17T00:06:18.511Z,92.33
2022-10-17T00:07:18.519Z,92.54
2022-10-17T00:08:18.518Z,92.64
2022-10-17T00:09:18.512Z,92.74
2022-10-17T00:10:18.479Z,92.54
2022-10-17T00:11:20.335Z,92.13
2022-10-17T00:12:18.527Z,91.86
2022-10-17T00:13:18.473Z,91.76
2022-10-17T00:14:18.447Z,91.96
2022-10-17T00:15:18.427Z,91.86
2022-10-17T00:16:18.405Z,92.07
2022-10-17T00:17:18.401Z,92.27
2022-10-17T00:18:18.430Z,92.37
2022-10-17T00:19:18.386Z,92.27
2022-10-17T00:20:18.380Z,92.27
2022-10-17T00:21:18.381Z,92.47
2022-10-17T00:22:18.347Z,92.27
2022-10-17T00:23:18.352Z,92.37
2022-10-17T00:24:18.382Z,92.27
2022-10-17T00:25:18.311Z,92.37
2022-10-17T00:26:18.316Z,92.37
2022-10-17T00:27:18.295Z,92.27
2022-10-17T00:28:18.272Z,92.17
2022-10-17T00:29:18.289Z,92.27
2022-10-17T00:30:18.290Z,92.17
2022-10-17T00:31:18.240Z,92.58
2022-10-17T00:32:18.271Z,92.78
2022-10-17T00:33:18.222Z,92.78
2022-10-17T00:34:18.205Z,92.37
2022-10-17T00:35:18.207Z,92.47
2022-10-17T00:36:18.254Z,92.47
2022-10-17T00:37:18.180Z,92.47
2022-10-17T00:38:18.189Z,92.68
2022-10-17T00:39:18.163Z,92.88
2022-10-17T00:40:18.154Z,93.09
2022-10-17T00:41:18.160Z,92.78
2022-10-17T00:42:18.149Z,92.78
2022-10-17T00:43:18.122Z,92.27
2022-10-17T00:44:18.114Z,92.47
2022-10-17T00:45:18.090Z,92.37
2022-10-17T00:46:18.072Z,92.37
2022-10-17T00:47:18.113Z,92.27
2022-10-17T00:48:22.506Z,92.27
2022-10-17T00:49:19.056Z,92.37
2022-10-17T00:50:18.046Z,92.47
2022-10-17T00:51:18.037Z,92.78
2022-10-17T00:52:18.131Z,92.83
2022-10-17T00:53:18.019Z,92.93
2022-10-17T00:54:17.994Z,92.72
2022-10-17T00:55:17.977Z,92.32
2022-10-17T00:56:17.973Z,92.21
2022-10-17T00:57:17.966Z,92.11
2022-10-17T00:58:17.990Z,92.32
2022-10-17T00:59:17.960Z,92.62
2022-10-17T01:00:17.937Z,92.62
2022-10-17T01:01:17.935Z,92.72
2022-10-17T01:02:17.940Z,92.93
2022-10-17T01:03:17.927Z,93.24
2022-10-17T01:04:17.888Z,93.24
2022-10-17T01:05:17.891Z,93.03
2022-10-17T01:06:17.849Z,92.72
2022-10-17T01:07:17.860Z,92.72
2022-10-17T01:08:17.889Z,93.03
2022-10-17T01:09:17.840Z,93.33
2022-10-17T01:10:17.835Z,93.54
2022-10-17T01:11:17.828Z,93.44
2022-10-17T01:12:17.804Z,93.33
2022-10-17T01:13:17.827Z,93.44
2022-10-17T01:14:17.780Z,93.85
2022-10-17T01:15:17.757Z,94.06
2022-10-17T01:16:17.744Z,93.95
2022-10-17T01:17:17.745Z,94.32
2022-10-17T01:18:17.759Z,94.52
2022-10-17T01:19:17.756Z,94.62
2022-10-17T01:20:17.744Z,94.73
2022-10-17T01:21:17.710Z,94.73
2022-10-17T01:22:17.682Z,94.73
2022-10-17T01:23:17.743Z,94.73
2022-10-17T01:24:17.679Z,94.73
2022-10-17T01:25:17.653Z,94.62
2022-10-17T01:26:17.656Z,94.11
2022-10-17T01:27:17.637Z,94.36
2022-10-17T01:28:17.756Z,94.82
2022-10-17T01:29:17.638Z,95.03
2022-10-17T01:30:17.599Z,95.03
2022-10-17T01:31:17.589Z,94.93
2022-10-17T01:32:17.594Z,94.93
2022-10-17T01:33:17.566Z,94.82
2022-10-17T01:34:17.589Z,94.93
2022-10-17T01:35:17.567Z,94.93
2022-10-17T01:36:17.524Z,94.93
2022-10-17T01:37:17.522Z,95.03
2022-10-17T01:38:17.512Z,95.34
2022-10-17T01:39:17.561Z,95.44
2022-10-17T01:40:17.488Z,95.54
2022-10-17T01:41:17.480Z,95.75
2022-10-17T01:42:17.464Z,96.05
2022-10-17T01:43:17.463Z,96.21
2022-10-17T01:44:17.439Z,96.11
2022-10-17T01:45:17.463Z,96.01
2022-10-17T01:46:17.421Z,96.01
2022-10-17T01:47:17.421Z,96.11
2022-10-17T01:48:17.442Z,96.21
2022-10-17T01:49:17.386Z,96.31
2022-10-17T01:50:17.390Z,96.31
2022-10-17T01:51:17.377Z,96.11
2022-10-17T01:52:17.363Z,95.90
2022-10-17T01:53:17.348Z,95.60
2022-10-17T01:54:17.368Z,95.60
2022-10-17T01:55:17.369Z,95.70
2022-10-17T01:56:17.337Z,95.90
2022-10-17T01:57:17.313Z,96.01
2022-10-17T01:58:17.292Z,96.01
2022-10-17T01:59:17.327Z,96.01
2022-10-17T02:00:17.290Z,96.11
2022-10-17T02:01:17.303Z,96.31
2022-10-17T02:02:17.288Z,96.51
2022-10-17T02:03:17.252Z,96.62
2022-10-17T02:04:17.253Z,96.62
2022-10-17T02:05:17.244Z,96.51
2022-10-17T02:06:17.254Z,96.42
2022-10-17T02:07:17.201Z,96.42
2022-10-17T02:08:17.197Z,96.62
2022-10-17T02:09:17.212Z,96.72
2022-10-17T02:10:17.166Z,96.78
2022-10-17T02:11:17.180Z,96.88
2022-10-17T02:12:17.133Z,96.98
2022-10-17T02:13:17.102Z,97.08
2022-10-17T02:14:17.141Z,97.08
2022-10-17T02:15:17.122Z,97.08
2022-10-17T02:16:17.133Z,97.08
2022-10-17T02:17:17.095Z,96.98
2022-10-17T02:18:17.082Z,96.98
2022-10-17T02:19:17.042Z,96.88
2022-10-17T02:20:17.045Z,96.98
2022-10-17T02:21:17.053Z,97.08
2022-10-17T02:22:17.012Z,97.19
2022-10-17T02:23:16.999Z,97.08
2022-10-17T02:24:17.059Z,97.08
2022-10-17T02:25:16.986Z,97.08
2022-10-17T02:26:16.984Z,97.19
2022-10-17T02:27:16.964Z,97.29
2022-10-17T02:28:16.953Z,97.39
2022-10-17T02:29:16.947Z,97.39
2022-10-17T02:30:16.979Z,97.49
2022-10-17T02:31:16.926Z,97.49
2022-10-17T02:32:16.945Z,97.60
2022-10-17T02:33:16.884Z,97.70
2022-10-17T02:34:16.885Z,97.80
2022-10-17T02:35:16.887Z,97.86
2022-10-17T02:36:16.914Z,98.00
2022-10-17T02:37:16.895Z,97.86
2022-10-17T02:38:16.860Z,97.86
2022-10-17T02:39:17.609Z,97.86
2022-10-17T02:40:16.830Z,97.75
2022-10-17T02:41:16.832Z,97.80
2022-10-17T02:42:16.806Z,97.70
2022-10-17T02:43:16.804Z,97.70
2022-10-17T02:44:16.798Z,97.75
2022-10-17T02:45:16.938Z,97.80
2022-10-17T02:46:16.759Z,97.90
2022-10-17T02:47:16.773Z,97.90
2022-10-17T02:48:16.752Z,97.96
2022-10-17T02:49:16.726Z,97.96
2022-10-17T02:50:16.747Z,98.00
2022-10-17T02:51:16.721Z,98.11
2022-10-17T02:52:16.691Z,98.21
2022-10-17T02:53:16.694Z,98.31
2022-10-17T02:54:16.681Z,98.36
2022-10-17T02:55:16.679Z,98.36
2022-10-17T02:56:16.663Z,98.47
2022-10-17T02:57:16.632Z,98.52
2022-10-17T02:58:16.627Z,98.61
2022-10-17T02:59:16.620Z,98.61
2022-10-17T03:00:16.590Z,98.82
2022-10-17T03:01:16.789Z,98.93
2022-10-17T03:02:16.613Z,99.02
2022-10-17T03:03:16.573Z,99.23
2022-10-17T03:04:16.893Z,99.33
2022-10-17T03:05:16.931Z,99.54
2022-10-17T03:06:16.533Z,99.64
2022-10-17T03:07:16.542Z,99.74
2022-10-17T03:08:16.540Z,99.84
2022-10-17T03:09:16.507Z,99.95
2022-10-17T03:10:16.485Z,99.99
2022-10-17T03:11:16.524Z,99.99
2022-10-17T03:12:16.497Z,99.99
2022-10-17T03:13:16.492Z,99.99
2022-10-17T03:14:16.450Z,99.99
2022-10-17T03:15:16.487Z,99.99
2022-10-17T03:16:16.436Z,99.99
2022-10-17T03:17:16.434Z,99.99
2022-10-17T03:18:16.426Z,99.99
2022-10-17T03:19:16.393Z,99.99
2022-10-17T03:20:16.388Z,99.99
2022-10-17T03:21:16.418Z,99.99
2022-10-17T03:22:16.366Z,99.99
2022-10-17T03:23:16.373Z,99.99
2022-10-17T03:24:16.343Z,99.99
2022-10-17T03:25:16.333Z,99.99
2022-10-17T03:26:16.373Z,99.99
2022-10-17T03:27:16.348Z,99.99
2022-10-17T03:28:16.329Z,99.99
2022-10-17T03:29:16.298Z,99.99
2022-10-17T03:30:16.300Z,99.99
2022-10-17T03:31:16.266Z,99.99
2022-10-17T03:32:16.280Z,99.99
2022-10-17T03:33:16.257Z,99.99
2022-10-17T03:34:16.242Z,99.99
2022-10-17T03:35:16.240Z,99.99
2022-10-17T03:36:16.223Z,99.99
2022-10-17T03:37:16.219Z,99.99
2022-10-17T03:38:16.188Z,99.99
2022-10-17T03:39:16.220Z,99.99
2022-10-17T03:40:16.171Z,99.99
2022-10-17T03:41:16.162Z,99.99
2022-10-17T03:42:16.140Z,99.99
2022-10-17T03:43:16.135Z,99.99
2022-10-17T03:44:16.375Z,99.99
2022-10-17T03:45:16.112Z,99.99
2022-10-17T03:47:16.092Z,99.99
2022-10-17T03:48:16.092Z,99.99
2022-10-17T03:49:16.062Z,99.99
2022-10-17T03:50:16.074Z,99.99
2022-10-17T03:51:16.068Z,99.99
2022-10-17T03:52:16.034Z,99.99
2022-10-17T03:53:16.012Z,99.99
2022-10-17T03:54:16.044Z,99.99
2022-10-17T03:55:15.993Z,99.99
2022-10-17T03:56:15.985Z,99.99
2022-10-17T03:57:16.034Z,99.99
2022-10-17T03:58:15.964Z,99.99
2022-10-17T03:59:15.955Z,99.99
2022-10-17T04:00:15.954Z,99.99
2022-10-17T04:01:16.061Z,99.99
2022-10-17T04:02:15.935Z,99.99
2022-10-17T04:03:17.309Z,99.99
2022-10-17T04:04:15.925Z,99.99
2022-10-17T04:05:15.897Z,99.99
2022-10-17T04:06:15.956Z,99.99
2022-10-17T04:07:15.910Z,99.99
2022-10-17T04:08:15.878Z,99.99
2022-10-17T04:09:16.176Z,99.99
2022-10-17T04:10:16.438Z,99.99
2022-10-17T04:11:15.838Z,99.99
2022-10-17T04:12:16.149Z,99.99
2022-10-17T04:13:15.826Z,99.99
2022-10-17T04:14:15.828Z,99.99
2022-10-17T04:15:15.824Z,99.99
2022-10-17T04:16:15.788Z,99.99
2022-10-17T04:17:15.751Z,99.99
2022-10-17T04:18:15.764Z,99.99
2022-10-17T04:19:15.739Z,99.99
2022-10-17T04:20:15.739Z,99.99
2022-10-17T04:21:15.710Z,99.99
2022-10-17T04:22:15.720Z,99.99
2022-10-17T04:23:15.711Z,99.99
2022-10-17T04:24:15.683Z,99.99
2022-10-17T04:25:15.673Z,99.99
2022-10-17T04:26:16.834Z,99.99
2022-10-17T04:27:15.674Z,99.99
2022-10-17T04:28:15.641Z,99.99
2022-10-17T04:29:15.630Z,99.99
2022-10-17T04:30:15.653Z,99.99
2022-10-17T04:31:15.632Z,99.99
2022-10-17T04:32:15.906Z,99.99
2022-10-17T04:33:15.617Z,99.99
2022-10-17T04:34:15.586Z,99.99
2022-10-17T04:35:15.604Z,99.99
2022-10-17T04:36:15.581Z,99.99
2022-10-17T04:37:15.542Z,99.99
2022-10-17T04:38:15.524Z,99.99
2022-10-17T04:39:15.576Z,99.99
2022-10-17T04:40:15.535Z,99.99
2022-10-17T04:41:15.512Z,99.99
2022-10-17T04:42:15.490Z,99.99
2022-10-17T04:43:15.476Z,99.99
2022-10-17T04:44:15.457Z,99.99
2022-10-17T04:45:15.478Z,99.99
2022-10-17T04:46:15.477Z,99.99
2022-10-17T04:47:15.428Z,99.99
2022-10-17T04:48:15.428Z,99.99
2022-10-17T04:49:15.408Z,99.99
2022-10-17T04:50:15.449Z,99.99
2022-10-17T04:51:15.448Z,99.99
2022-10-17T04:52:15.370Z,99.99
2022-10-17T04:53:15.396Z,99.99
2022-10-17T04:54:15.384Z,99.99
2022-10-17T04:55:15.387Z,99.99
2022-10-17T04:56:15.337Z,99.99
2022-10-17T04:57:15.655Z,99.99
2022-10-17T04:58:15.335Z,99.99
2022-10-17T04:59:15.313Z,99.99
2022-10-17T05:00:15.310Z,99.99
2022-10-17T05:01:15.379Z,99.99
2022-10-17T05:02:15.262Z,99.99
2022-10-17T05:03:15.277Z,99.99
2022-10-17T05:04:15.258Z,99.99
2022-10-17T05:05:15.244Z,99.99
2022-10-17T05:06:15.223Z,99.99
2022-10-17T05:07:15.212Z,99.99
2022-10-17T05:08:15.276Z,99.99
2022-10-17T05:09:15.201Z,99.99
2022-10-17T05:10:15.180Z,99.99
2022-10-17T05:11:15.184Z,99.99
2022-10-17T05:12:15.194Z,99.99
2022-10-17T05:13:15.152Z,99.99
2022-10-17T05:14:15.173Z,99.99
2022-10-17T05:15:15.144Z,99.99
2022-10-17T05:16:15.103Z,99.99
2022-10-17T05:17:15.115Z,99.99
2022-10-17T05:18:15.102Z,99.99
2022-10-17T05:19:15.103Z,99.99
2022-10-17T05:20:15.877Z,99.99
2022-10-17T05:21:15.084Z,99.99
2022-10-17T05:22:15.067Z,99.99
2022-10-17T05:23:15.116Z,99.99
2022-10-17T05:24:15.086Z,99.99
2022-10-17T05:25:15.040Z,99.99
2022-10-17T05:26:15.015Z,99.99
2022-10-17T05:27:15.007Z,99.99
2022-10-17T05:28:14.975Z,99.99
2022-10-17T05:29:15.015Z,99.99
2022-10-17T05:30:14.955Z,99.99
2022-10-17T05:31:14.965Z,99.99
2022-10-17T05:32:14.997Z,99.99
2022-10-17T05:33:14.938Z,99.99
2022-10-17T05:34:15.046Z,99.99
2022-10-17T05:35:14.929Z,99.99
2022-10-17T05:36:15.210Z,99.99
2022-10-17T05:37:14.895Z,99.99
2022-10-17T05:38:14.877Z,99.99
2022-10-17T05:39:14.876Z,99.99
2022-10-17T05:40:14.898Z,99.99
2022-10-17T05:41:15.131Z,99.99
2022-10-17T05:42:14.840Z,99.99
2022-10-17T05:43:14.880Z,99.99
2022-10-17T05:44:14.851Z,99.99
2022-10-17T05:45:14.796Z,99.99
2022-10-17T05:46:14.804Z,99.99
2022-10-17T05:47:15.567Z,99.99
2022-10-17T05:48:14.762Z,99.99
2022-10-17T05:49:19.622Z,99.99
2022-10-17T05:50:15.761Z,99.99
2022-10-17T05:51:14.743Z,99.99
2022-10-17T05:52:16.712Z,99.99
2022-10-17T05:53:14.726Z,99.99
2022-10-17T05:54:15.472Z,99.99
2022-10-17T05:55:14.812Z,99.99
2022-10-17T05:56:14.673Z,99.99
2022-10-17T05:57:15.551Z,99.99
2022-10-17T05:58:22.313Z,99.99
2022-10-17T05:59:15.652Z,99.99
2022-10-17T06:00:14.711Z,99.99
2022-10-17T06:01:14.653Z,99.99
2022-10-17T06:02:14.652Z,99.99
2022-10-17T06:03:14.942Z,99.99
2022-10-17T06:04:14.614Z,99.99
2022-10-17T06:05:14.634Z,99.99
2022-10-17T06:06:15.435Z,99.99
2022-10-17T06:07:14.610Z,99.99
2022-10-17T06:08:14.614Z,99.99
2022-10-17T06:09:14.568Z,99.99
2022-10-17T06:10:14.568Z,99.99
2022-10-17T06:11:14.635Z,99.99
2022-10-17T06:12:14.517Z,99.99
2022-10-17T06:13:14.511Z,99.99
2022-10-17T06:14:14.475Z,99.99
2022-10-17T06:15:14.456Z,99.99
2022-10-17T06:16:14.479Z,99.99
2022-10-17T06:17:16.177Z,99.99
2022-10-17T06:18:14.458Z,99.99
2022-10-17T06:19:14.425Z,99.99
2022-10-17T06:20:14.438Z,99.99
2022-10-17T06:21:14.410Z,99.99
2022-10-17T06:22:14.398Z,99.99
2022-10-17T06:23:14.443Z,99.99
2022-10-17T06:24:14.370Z,99.99
2022-10-17T06:25:14.440Z,99.99
2022-10-17T06:26:14.369Z,99.99
2022-10-17T06:27:14.718Z,99.99
2022-10-17T06:28:14.349Z,99.99
2022-10-17T06:29:14.338Z,99.99
2022-10-17T06:30:14.366Z,99.99
2022-10-17T06:31:14.333Z,99.99
2022-10-17T06:32:15.337Z,99.99
2022-10-17T06:33:14.301Z,99.99
2022-10-17T06:34:14.271Z,99.99
2022-10-17T06:35:14.290Z,99.99
2022-10-17T06:36:14.262Z,99.99
2022-10-17T06:37:14.251Z,99.99
2022-10-17T06:38:14.237Z,99.99
2022-10-17T06:39:14.212Z,99.99
2022-10-17T06:40:14.210Z,99.99
2022-10-17T06:41:14.230Z,99.99
2022-10-17T06:42:14.310Z,99.99
2022-10-17T06:43:14.162Z,99.99
2022-10-17T06:44:14.176Z,99.99
2022-10-17T06:45:14.144Z,99.99
2022-10-17T06:46:14.125Z,99.99
2022-10-17T06:47:16.541Z,99.99
2022-10-17T06:48:15.119Z,99.99
2022-10-17T06:49:14.096Z,99.99
2022-10-17T06:50:14.075Z,99.99
2022-10-17T06:51:14.096Z,99.99
2022-10-17T06:52:14.064Z,99.99
2022-10-17T06:53:14.128Z,99.99
2022-10-17T06:54:14.443Z,99.99
2022-10-17T06:55:16.831Z,99.99
2022-10-17T06:56:15.017Z,99.99
2022-10-17T06:57:14.019Z,99.99
2022-10-17T06:58:13.997Z,99.99
2022-10-17T06:59:14.033Z,99.99
2022-10-17T07:00:13.995Z,99.99
2022-10-17T07:01:13.969Z,99.99
2022-10-17T07:02:13.949Z,99.99
2022-10-17T07:03:13.959Z,99.99
2022-10-17T07:04:14.347Z,99.99
2022-10-17T07:05:13.949Z,99.99
2022-10-17T07:06:13.917Z,99.99
2022-10-17T07:07:13.896Z,99.99
2022-10-17T07:08:13.897Z,99.99
2022-10-17T07:09:13.887Z,99.99
2022-10-17T07:10:13.877Z,99.99
2022-10-17T07:11:13.912Z,99.99
2022-10-17T07:12:13.848Z,99.99
2022-10-17T07:13:14.641Z,99.99
2022-10-17T07:14:13.869Z,99.99
2022-10-17T07:15:13.799Z,99.99
2022-10-17T07:16:13.794Z,99.99
2022-10-17T07:17:13.860Z,99.99
2022-10-17T07:18:13.780Z,99.99
2022-10-17T07:19:13.831Z,99.99
2022-10-17T07:20:13.761Z,99.99
2022-10-17T07:21:13.761Z,99.99
2022-10-17T07:22:13.731Z,99.99
2022-10-17T07:23:13.720Z,99.99
2022-10-17T07:24:13.733Z,99.99
2022-10-17T07:25:14.611Z,99.99
2022-10-17T07:26:13.723Z,99.99
2022-10-17T07:27:13.690Z,99.99
2022-10-17T07:28:13.666Z,99.99
2022-10-17T07:29:13.682Z,99.99
2022-10-17T07:30:13.643Z,99.99
2022-10-17T07:31:13.662Z,99.99
2022-10-17T07:32:13.646Z,99.99
2022-10-17T07:33:13.618Z,99.99
2022-10-17T07:34:13.594Z,99.99
2022-10-17T07:35:13.597Z,99.99
2022-10-17T07:36:13.581Z,99.99
2022-10-17T07:37:13.589Z,99.99
2022-10-17T07:38:13.959Z,99.99
2022-10-17T07:39:13.566Z,99.99
2022-10-17T07:40:13.536Z,99.99
2022-10-17T07:41:16.563Z,99.99
2022-10-17T07:42:14.538Z,99.99
2022-10-17T07:43:13.541Z,99.99
2022-10-17T07:44:13.497Z,99.99
2022-10-17T07:45:13.524Z,99.99
2022-10-17T07:46:14.389Z,99.99
2022-10-17T07:47:13.679Z,99.99
2022-10-17T07:48:13.497Z,99.99
2022-10-17T07:49:13.448Z,99.99
2022-10-17T07:50:13.428Z,99.99
2022-10-17T07:51:13.435Z,99.99
2022-10-17T07:52:13.769Z,99.99
2022-10-17T07:53:13.396Z,99.99
2022-10-17T07:54:13.400Z,99.99
2022-10-17T07:55:13.368Z,99.99
2022-10-17T07:56:13.361Z,99.99
2022-10-17T07:57:13.367Z,99.99
2022-10-17T07:58:13.380Z,99.99
2022-10-17T07:59:13.457Z,99.99
2022-10-17T08:00:13.340Z,99.99
2022-10-17T08:01:15.173Z,99.99
2022-10-17T08:02:13.302Z,99.99
2022-10-17T08:03:13.292Z,99.99
2022-10-17T08:04:13.428Z,99.99
2022-10-17T08:05:13.262Z,99.99
2022-10-17T08:06:13.253Z,99.99
2022-10-17T08:07:20.917Z,99.99
2022-10-17T08:08:14.273Z,99.99
2022-10-17T08:09:13.222Z,99.99
2022-10-17T08:10:13.435Z,99.99
2022-10-17T08:11:13.227Z,99.99
2022-10-17T08:12:13.195Z,99.99
2022-10-17T08:13:13.204Z,99.99
2022-10-17T08:14:13.164Z,99.99
2022-10-17T08:15:13.182Z,99.99
2022-10-17T08:16:13.163Z,99.99
2022-10-17T08:17:13.133Z,99.99
2022-10-17T08:18:13.130Z,99.99
2022-10-17T08:19:13.136Z,99.99
2022-10-17T08:20:13.414Z,99.99
2022-10-17T08:21:13.108Z,99.99
2022-10-17T08:22:13.105Z,99.99
2022-10-17T08:23:13.094Z,99.99
2022-10-17T08:24:13.061Z,99.99
2022-10-17T08:25:13.067Z,99.99
2022-10-17T08:26:13.122Z,99.99
2022-10-17T08:27:13.026Z,99.99
2022-10-17T08:28:13.402Z,99.99
2022-10-17T08:29:13.084Z,99.99
2022-10-17T08:30:12.988Z,99.99
2022-10-17T08:31:12.986Z,99.99
2022-10-17T08:32:12.981Z,99.99
2022-10-17T08:33:12.969Z,99.99
2022-10-17T08:34:13.668Z,99.99
2022-10-17T08:35:12.976Z,99.99
2022-10-17T08:36:12.935Z,99.99
2022-10-17T08:37:12.932Z,99.68
2022-10-17T08:38:13.523Z,99.78
2022-10-17T08:39:12.908Z,99.99
2022-10-17T08:40:12.918Z,99.99
2022-10-17T08:41:12.880Z,99.99
2022-10-17T08:42:12.877Z,99.99
2022-10-17T08:43:12.852Z,99.99
2022-10-17T08:44:12.882Z,99.88
2022-10-17T08:45:12.869Z,99.68
2022-10-17T08:46:12.865Z,99.58
2022-10-17T08:47:13.575Z,99.17
2022-10-17T08:48:12.780Z,99.33
2022-10-17T08:49:12.782Z,99.53
2022-10-17T08:50:12.871Z,99.63
2022-10-17T08:51:12.762Z,99.94
2022-10-17T08:52:12.770Z,99.94
2022-10-17T08:53:12.751Z,99.74
2022-10-17T08:54:12.734Z,99.53
2022-10-17T08:55:12.860Z,99.33
2022-10-17T08:56:19.572Z,99.43
2022-10-17T08:57:14.481Z,99.43
2022-10-17T08:58:12.715Z,99.43
2022-10-17T08:59:12.681Z,99.74
2022-10-17T09:00:12.659Z,99.99
2022-10-17T09:01:13.293Z,99.99
2022-10-17T09:02:12.647Z,99.99
2022-10-17T09:03:12.753Z,99.99
2022-10-17T09:04:12.635Z,99.99
2022-10-17T09:05:12.617Z,99.89
2022-10-17T09:06:12.622Z,99.99
2022-10-17T09:07:12.680Z,99.99
2022-10-17T09:08:12.576Z,99.99
2022-10-17T09:09:12.568Z,99.99
2022-10-17T09:10:12.554Z,99.99
2022-10-17T09:11:12.538Z,99.99
2022-10-17T09:12:12.554Z,99.99
2022-10-17T09:13:12.547Z,99.99
2022-10-17T09:14:12.536Z,99.99
2022-10-17T09:15:12.488Z,99.99
2022-10-17T09:16:12.498Z,99.99
2022-10-17T09:17:12.497Z,99.95
2022-10-17T09:18:12.474Z,99.95
2022-10-17T09:19:12.502Z,99.85
2022-10-17T09:20:12.489Z,99.85
2022-10-17T09:21:12.428Z,99.90
2022-10-17T09:22:12.435Z,99.60
2022-10-17T09:23:12.410Z,99.49
2022-10-17T09:24:15.844Z,99.39
2022-10-17T09:25:12.431Z,99.08
2022-10-17T09:26:12.381Z,98.88
2022-10-17T09:27:12.401Z,99.08
2022-10-17T09:28:12.369Z,99.29
2022-10-17T09:29:12.341Z,99.65
2022-10-17T09:30:21.291Z,99.75
2022-10-17T09:31:13.333Z,99.75
2022-10-17T09:32:12.369Z,99.75
2022-10-17T09:33:23.172Z,99.95
2022-10-17T09:34:13.302Z,99.99
2022-10-17T09:35:12.312Z,99.99
2022-10-17T09:36:12.637Z,99.99
2022-10-17T09:37:12.291Z,99.99
2022-10-17T09:38:12.252Z,99.99
2022-10-17T09:39:12.350Z,99.80
2022-10-17T09:40:12.228Z,99.99
2022-10-17T09:41:39.351Z,99.99
2022-10-17T09:42:13.240Z,99.96
2022-10-17T09:43:12.195Z,99.99
2022-10-17T09:44:12.205Z,99.99
2022-10-17T09:45:12.477Z,99.99
2022-10-17T09:46:12.177Z,99.99
2022-10-17T09:47:12.505Z,99.99
2022-10-17T09:48:12.170Z,99.99
2022-10-17T09:49:14.807Z,99.99
2022-10-17T09:50:12.145Z,99.99
2022-10-17T09:51:21.888Z,99.99
2022-10-17T09:52:13.145Z,99.99
2022-10-17T09:53:12.106Z,99.99
2022-10-17T09:54:12.088Z,99.26
2022-10-17T09:55:12.083Z,99.05
2022-10-17T09:56:12.066Z,99.16
2022-10-17T09:57:12.077Z,99.16
2022-10-17T09:58:12.031Z,99.26
2022-10-17T09:59:13.940Z,99.05
2022-10-17T10:00:12.107Z,99.16
2022-10-17T10:01:12.041Z,99.26
2022-10-17T10:02:12.287Z,98.65
2022-10-17T10:03:12.251Z,98.55
2022-10-17T10:04:11.959Z,98.65
2022-10-17T10:05:12.000Z,98.35
2022-10-17T10:06:11.970Z,98.14
2022-10-17T10:07:11.964Z,98.35
2022-10-17T10:08:11.946Z,98.65
2022-10-17T10:09:12.076Z,98.65
2022-10-17T10:10:11.960Z,98.85
2022-10-17T10:11:13.957Z,99.05
2022-10-17T10:12:11.893Z,99.16
2022-10-17T10:13:12.675Z,99.05
2022-10-17T10:14:11.872Z,98.85
2022-10-17T10:15:11.892Z,98.96
2022-10-17T10:16:11.842Z,98.75
2022-10-17T10:17:11.873Z,98.85
2022-10-17T10:18:11.854Z,98.81
2022-10-17T10:19:12.636Z,98.81
2022-10-17T10:20:11.847Z,98.81
2022-10-17T10:21:11.805Z,98.91
2022-10-17T10:22:11.976Z,99.01
2022-10-17T10:23:11.775Z,99.11
2022-10-17T10:24:11.812Z,99.32
2022-10-17T10:25:11.755Z,99.01
2022-10-17T10:26:12.457Z,99.01
2022-10-17T10:27:11.729Z,99.01
2022-10-17T10:28:11.723Z,98.81
2022-10-17T10:29:12.843Z,98.91
2022-10-17T10:30:11.696Z,98.86
2022-10-17T10:31:11.732Z,98.71
2022-10-17T10:32:11.689Z,98.46
2022-10-17T10:33:11.659Z,98.56
2022-10-17T10:34:11.656Z,98.36
2022-10-17T10:35:11.681Z,98.46
2022-10-17T10:36:11.728Z,98.56
2022-10-17T10:37:13.526Z,98.46
2022-10-17T10:38:11.627Z,98.66
2022-10-17T10:39:11.590Z,98.25
2022-10-17T10:40:12.358Z,98.05
2022-10-17T10:41:12.159Z,98.25
2022-10-17T10:42:11.588Z,98.36
2022-10-17T10:43:11.569Z,98.36
2022-10-17T10:44:11.529Z,98.66
2022-10-17T10:45:19.132Z,98.76
2022-10-17T10:46:12.510Z,98.86
2022-10-17T10:47:11.602Z,99.16
2022-10-17T10:48:11.489Z,99.27
2022-10-17T10:49:11.488Z,99.37
2022-10-17T10:50:11.485Z,99.22
2022-10-17T10:51:11.461Z,99.02
2022-10-17T10:52:11.451Z,98.82
2022-10-17T10:53:11.535Z,98.71
2022-10-17T10:54:11.442Z,98.82
2022-10-17T10:55:11.411Z,99.12
2022-10-17T10:56:11.420Z,99.22
2022-10-17T10:57:11.775Z,99.22
2022-10-17T10:58:11.423Z,99.02
2022-10-17T10:59:11.396Z,98.87
2022-10-17T11:00:11.363Z,98.82
2022-10-17T11:01:11.409Z,98.77
2022-10-17T11:02:13.345Z,98.87
2022-10-17T11:03:12.694Z,98.87
2022-10-17T11:04:11.345Z,99.48
2022-10-17T11:05:11.349Z,99.78
2022-10-17T11:06:11.587Z,99.68
2022-10-17T11:07:11.296Z,99.27
2022-10-17T11:08:11.299Z,99.22
2022-10-17T11:09:11.275Z,99.43
2022-10-17T11:10:11.326Z,99.33
2022-10-17T11:11:11.292Z,99.22
2022-10-17T11:12:11.577Z,99.22
2022-10-17T11:13:11.227Z,98.82
2022-10-17T11:14:13.145Z,98.72
2022-10-17T11:15:11.197Z,98.62
2022-10-17T11:16:11.186Z,98.62
2022-10-17T11:17:11.178Z,98.72
2022-10-17T11:18:11.338Z,98.58
2022-10-17T11:19:11.159Z,98.68
2022-10-17T11:20:11.159Z,98.58
2022-10-17T11:21:11.538Z,98.98
2022-10-17T11:22:11.142Z,98.78
2022-10-17T11:23:11.152Z,97.82
2022-10-17T11:24:11.268Z,98.13
2022-10-17T11:25:11.103Z,98.13
2022-10-17T11:26:11.100Z,98.33
2022-10-17T11:27:11.359Z,98.73
2022-10-17T11:28:11.236Z,98.88
2022-10-17T11:29:11.073Z,98.63
2022-10-17T11:30:11.151Z,98.53
2022-10-17T11:31:11.183Z,98.43
2022-10-17T11:32:11.016Z,98.02
2022-10-17T11:33:11.072Z,97.92
2022-10-17T11:34:11.004Z,97.72
2022-10-17T11:35:11.009Z,97.62
2022-10-17T11:36:11.096Z,97.42
2022-10-17T11:37:10.972Z,97.22
2022-10-17T11:38:10.966Z,97.12
2022-10-17T11:39:10.953Z,97.42
2022-10-17T11:40:10.996Z,97.62
2022-10-17T11:41:11.013Z,97.92
2022-10-17T11:42:10.904Z,98.02
2022-10-17T11:43:10.895Z,98.13
2022-10-17T11:44:10.894Z,97.72
2022-10-17T11:45:10.926Z,97.42
2022-10-17T11:46:10.881Z,97.32
2022-10-17T11:47:10.858Z,97.02
2022-10-17T11:48:10.875Z,96.81
2022-10-17T11:49:11.291Z,97.02
2022-10-17T11:52:15.807Z,97.12
2022-10-17T11:53:11.857Z,97.22
2022-10-17T11:54:10.778Z,97.12
2022-10-17T11:55:10.778Z,96.97
2022-10-17T11:56:10.776Z,96.77
2022-10-17T11:57:14.066Z,96.67
2022-10-17T11:58:10.739Z,96.56
2022-10-17T11:59:10.859Z,96.56
2022-10-17T12:00:10.710Z,96.56
2022-10-17T12:01:10.702Z,96.26
2022-10-17T12:02:10.787Z,96.26
2022-10-17T12:03:10.678Z,96.16
2022-10-17T12:04:10.726Z,96.16
2022-10-17T12:05:10.726Z,96.16
2022-10-17T12:06:10.650Z,96.16
2022-10-17T12:07:10.639Z,96.42
2022-10-17T12:08:10.733Z,96.42
2022-10-17T12:09:10.612Z,96.01
2022-10-17T12:10:10.635Z,96.22
2022-10-17T12:11:10.609Z,95.57
2022-10-17T12:12:10.583Z,94.96
2022-10-17T12:13:10.565Z,95.22
2022-10-17T12:14:10.585Z,94.82
2022-10-17T12:15:10.564Z,94.62
2022-10-17T12:16:14.622Z,94.52
2022-10-17T12:17:11.570Z,94.52
2022-10-17T12:18:10.525Z,94.92
2022-10-17T12:19:10.504Z,95.02
2022-10-17T12:20:10.583Z,94.32
2022-10-17T12:21:10.484Z,94.52
2022-10-17T12:22:10.510Z,93.97
2022-10-17T12:23:10.678Z,94.47
2022-10-17T12:24:10.457Z,94.47
2022-10-17T12:25:10.433Z,94.32
2022-10-17T12:26:10.490Z,93.31
2022-10-17T12:27:10.418Z,93.07
2022-10-17T12:28:10.405Z,93.97
2022-10-17T12:29:10.440Z,93.87
2022-10-17T12:30:10.385Z,93.16
2022-10-17T12:31:10.429Z,93.27
2022-10-17T12:32:10.423Z,93.37
2022-10-17T12:33:10.347Z,92.56
2022-10-17T12:34:10.336Z,92.72
2022-10-17T12:35:10.364Z,92.41
2022-10-17T12:36:10.449Z,92.72
2022-10-17T12:37:10.310Z,92.52
2022-10-17T12:38:10.324Z,92.11
2022-10-17T12:39:10.291Z,92.57
2022-10-17T12:40:10.650Z,92.57
2022-10-17T12:41:10.288Z,91.47
2022-10-17T12:42:10.300Z,91.22
2022-10-17T12:43:10.241Z,90.42
2022-10-17T12:44:10.285Z,90.92
2022-10-17T12:45:10.628Z,90.42
2022-10-17T12:46:10.211Z,90.12
2022-10-17T12:47:10.219Z,89.78
2022-10-17T12:48:10.220Z,90.48
2022-10-17T12:49:10.971Z,90.08
2022-10-17T12:50:10.191Z,90.37
2022-10-17T12:52:11.134Z,89.92
2022-10-17T12:53:10.262Z,90.42
2022-10-17T12:54:10.152Z,90.22
2022-10-17T12:55:13.173Z,90.22
2022-10-17T12:56:10.139Z,90.12